createdAt,value
2018-06-12T00:00:20.237Z,13.07
2018-06-12T00:02:47.690Z,11.73
2018-06-12T00:05:15.031Z,12.63
2018-06-12T00:07:42.377Z,9.87
2018-06-12T00:10:09.713Z,6.93
2018-06-12T00:12:37.201Z,7.13
2018-06-12T00:15:04.553Z,6.63
2018-06-12T00:17:32.110Z,5.50
2018-06-12T00:19:59.626Z,6.07
2018-06-12T00:22:27.117Z,6.70
2018-06-12T00:24:54.924Z,9.10
2018-06-12T00:27:22.304Z,7.63
2018-06-12T00:29:49.746Z,7.43
2018-06-12T00:32:17.146Z,8.53
2018-06-12T00:34:44.499Z,6.13
2018-06-12T00:37:11.914Z,6.40
2018-06-12T00:39:40.580Z,5.83
2018-06-12T00:42:08.146Z,6.10
2018-06-12T00:44:35.509Z,5.53
2018-06-12T00:47:03.032Z,5.43
2018-06-12T00:49:30.944Z,5.53
2018-06-12T00:51:58.847Z,5.17
2018-06-12T00:54:26.318Z,8.43
2018-06-12T00:56:59.135Z,6.60
2018-06-12T00:59:26.576Z,7.43
2018-06-12T01:01:55.232Z,8.30
2018-06-12T01:04:22.794Z,8.87
2018-06-12T01:06:50.377Z,10.20
2018-06-12T01:09:17.807Z,7.40
2018-06-12T01:11:45.254Z,6.90
2018-06-12T01:14:12.689Z,7.43
2018-06-12T01:16:40.108Z,11.07
2018-06-12T01:19:07.505Z,8.30
2018-06-12T01:21:34.919Z,8.20
2018-06-12T01:24:02.905Z,9.07
2018-06-12T01:26:30.282Z,9.10
2018-06-12T01:28:58.441Z,10.40
2018-06-12T01:31:25.795Z,8.87
2018-06-12T01:33:53.309Z,8.53
2018-06-12T01:36:20.813Z,11.37
2018-06-12T01:38:48.376Z,11.60
2018-06-12T01:41:16.189Z,14.50
2018-06-12T01:43:43.561Z,11.47
2018-06-12T01:46:10.947Z,10.97
2018-06-12T01:48:38.463Z,11.47
2018-06-12T01:51:05.839Z,12.17
2018-06-12T01:53:33.745Z,15.70
2018-06-12T01:56:01.396Z,13.53
2018-06-12T01:58:29.109Z,13.60
2018-06-12T02:00:56.583Z,12.57
2018-06-12T02:03:24.084Z,13.13
2018-06-12T02:05:51.442Z,12.67
2018-06-12T02:08:19.003Z,12.97
2018-06-12T02:10:46.626Z,13.77
2018-06-12T02:13:14.044Z,14.37
2018-06-12T02:15:41.522Z,14.57
2018-06-12T02:18:08.883Z,12.50
2018-06-12T02:20:36.262Z,12.93
2018-06-12T02:23:04.144Z,10.47
2018-06-12T02:25:31.783Z,11.70
2018-06-12T02:27:59.370Z,11.10
2018-06-12T02:30:26.665Z,11.60
2018-06-12T02:32:54.339Z,10.30
2018-06-12T02:35:21.839Z,10.93
2018-06-12T02:37:49.243Z,9.63
2018-06-12T02:40:16.542Z,9.47
2018-06-12T02:42:43.896Z,11.10
2018-06-12T02:45:11.182Z,8.43
2018-06-12T02:47:38.536Z,8.23
2018-06-12T02:50:05.861Z,9.77
2018-06-12T02:52:33.213Z,11.43
2018-06-12T02:55:00.550Z,13.27
2018-06-12T02:57:27.937Z,15.17
2018-06-12T02:59:55.309Z,11.67
2018-06-12T03:02:22.652Z,10.40
2018-06-12T03:04:49.993Z,11.10
2018-06-12T03:07:17.344Z,12.23
2018-06-12T03:09:44.733Z,11.83
2018-06-12T03:12:12.063Z,11.03
2018-06-12T03:14:39.411Z,15.83
2018-06-12T03:17:06.760Z,15.13
2018-06-12T03:19:34.334Z,16.50
2018-06-12T03:22:01.693Z,22.13
2018-06-12T03:24:29.074Z,23.17
2018-06-12T03:26:56.416Z,20.93
2018-06-12T03:29:23.767Z,23.47
2018-06-12T03:31:51.090Z,23.70
2018-06-12T03:34:18.413Z,24.33
2018-06-12T03:36:45.742Z,26.17
2018-06-12T03:39:13.160Z,24.00
2018-06-12T03:41:40.513Z,29.00
2018-06-12T03:44:07.938Z,39.00
2018-06-12T03:46:35.255Z,42.97
2018-06-12T03:49:02.578Z,41.83
2018-06-12T03:51:29.900Z,47.07
2018-06-12T03:53:57.230Z,44.57
2018-06-12T03:56:25.327Z,47.77
2018-06-12T03:58:53.115Z,46.60
2018-06-12T04:01:20.459Z,49.27
2018-06-12T04:03:47.784Z,51.70
2018-06-12T04:06:15.139Z,51.83
2018-06-12T04:08:42.459Z,54.63
2018-06-12T04:11:09.817Z,57.40
2018-06-12T04:13:37.135Z,46.67
2018-06-12T04:16:04.484Z,45.83
2018-06-12T04:18:31.802Z,43.50
2018-06-12T04:20:59.156Z,45.77
2018-06-12T04:23:26.565Z,48.50
2018-06-12T04:25:53.954Z,46.10
2018-06-12T04:28:21.282Z,56.00
2018-06-12T04:30:48.586Z,49.13
2018-06-12T04:33:16.002Z,56.83
2018-06-12T04:35:43.294Z,57.63
2018-06-12T04:38:10.633Z,61.83
2018-06-12T04:40:37.942Z,57.13
2018-06-12T04:43:05.251Z,64.67
2018-06-12T04:45:32.778Z,67.03
2018-06-12T04:48:00.124Z,64.63
2018-06-12T04:50:30.659Z,61.33
2018-06-12T04:52:57.990Z,63.17
2018-06-12T04:55:25.333Z,60.80
2018-06-12T04:57:52.706Z,62.63
2018-06-12T05:00:20.097Z,71.20
2018-06-12T05:03:08.951Z,63.80
2018-06-12T05:05:36.748Z,69.13
2018-06-12T05:08:04.998Z,65.83
2018-06-12T05:10:34.878Z,78.13
2018-06-12T05:13:05.860Z,65.70
2018-06-12T05:15:38.319Z,73.00
2018-06-12T05:18:07.777Z,70.20
2018-06-12T05:20:35.138Z,72.80
2018-06-12T05:23:02.473Z,70.17
2018-06-12T05:25:30.009Z,58.27
2018-06-12T05:27:57.449Z,69.67
2018-06-12T05:30:24.954Z,44.13
2018-06-12T05:32:52.427Z,45.00
2018-06-12T05:35:19.735Z,38.37
2018-06-12T05:37:47.339Z,34.00
2018-06-12T05:40:14.680Z,34.20
2018-06-12T05:42:42.784Z,31.37
2018-06-12T05:45:10.726Z,33.93
2018-06-12T05:47:38.127Z,35.00
2018-06-12T05:50:05.444Z,34.47
2018-06-12T05:52:32.806Z,37.80
2018-06-12T05:55:11.948Z,36.70
2018-06-12T05:57:44.572Z,41.57
2018-06-12T06:00:12.500Z,38.17
2018-06-12T06:02:40.553Z,35.87
2018-06-12T06:05:13.258Z,39.77
2018-06-12T06:07:47.142Z,40.37
2018-06-12T06:10:15.175Z,36.97
2018-06-12T06:12:46.158Z,36.47
2018-06-12T06:15:14.772Z,35.30
2018-06-12T06:17:42.131Z,37.03
2018-06-12T06:20:09.456Z,39.10
2018-06-12T06:22:36.829Z,32.10
2018-06-12T06:25:04.279Z,32.00
2018-06-12T06:27:31.975Z,31.13
2018-06-12T06:29:59.470Z,31.30
2018-06-12T06:32:26.972Z,33.43
2018-06-12T06:34:54.388Z,30.17
2018-06-12T06:37:21.782Z,30.70
2018-06-12T06:39:49.175Z,30.20
2018-06-12T06:42:16.573Z,31.67
2018-06-12T06:44:44.116Z,33.33
2018-06-12T06:47:11.554Z,32.23
2018-06-12T06:49:52.101Z,30.17
2018-06-12T06:52:19.486Z,29.97
2018-06-12T06:54:46.841Z,26.20
2018-06-12T06:57:14.153Z,32.03
2018-06-12T06:59:41.489Z,34.43
2018-06-12T07:02:08.888Z,32.27
2018-06-12T07:04:36.194Z,31.03
2018-06-12T07:07:03.614Z,32.07
2018-06-12T07:09:30.930Z,31.63
2018-06-12T07:11:58.221Z,30.33
2018-06-12T07:14:25.572Z,29.50
2018-06-12T07:16:53.742Z,28.70
2018-06-12T07:19:21.162Z,27.70
2018-06-12T07:21:48.577Z,26.73
2018-06-12T07:24:15.950Z,30.30
2018-06-12T07:26:43.321Z,32.20
2018-06-12T07:29:10.650Z,30.57
2018-06-12T07:31:38.063Z,31.90
2018-06-12T07:34:05.485Z,31.50
2018-06-12T07:36:32.821Z,32.70
2018-06-12T07:39:00.160Z,32.20
2018-06-12T07:41:27.515Z,33.20
2018-06-12T07:43:54.860Z,31.43
2018-06-12T07:46:22.165Z,37.87
2018-06-12T07:48:49.548Z,34.20
2018-06-12T07:51:16.913Z,32.43
2018-06-12T07:53:44.372Z,42.10
2018-06-12T07:56:11.792Z,33.57
2018-06-12T07:58:39.141Z,35.63
2018-06-12T08:01:06.543Z,30.17
2018-06-12T08:03:33.928Z,38.80
2018-06-12T08:06:01.297Z,30.30
2018-06-12T08:08:28.618Z,28.00
2018-06-12T08:10:55.960Z,36.37
2018-06-12T08:13:23.275Z,25.47
2018-06-12T08:15:50.639Z,32.10
2018-06-12T08:18:18.022Z,23.33
2018-06-12T08:20:45.406Z,26.90
2018-06-12T08:23:12.731Z,25.67
2018-06-12T08:25:40.088Z,26.80
2018-06-12T08:28:07.471Z,25.10
2018-06-12T08:30:35.060Z,23.07
2018-06-12T08:33:02.363Z,21.90
2018-06-12T08:35:29.691Z,24.07
2018-06-12T08:37:57.024Z,24.77
2018-06-12T08:40:24.422Z,27.37
2018-06-12T08:42:51.761Z,28.80
2018-06-12T08:45:19.150Z,26.03
2018-06-12T08:47:46.569Z,27.47
2018-06-12T08:50:13.901Z,29.00
2018-06-12T08:52:41.683Z,26.23
2018-06-12T08:55:09.890Z,25.60
2018-06-12T08:57:37.261Z,29.40
2018-06-12T09:00:04.725Z,28.43
2018-06-12T09:02:32.202Z,29.33
2018-06-12T09:04:59.580Z,27.53
2018-06-12T09:07:26.921Z,28.33
2018-06-12T09:09:54.219Z,27.20
2018-06-12T09:12:21.650Z,30.40
2018-06-12T09:14:49.046Z,29.17
2018-06-12T09:17:16.385Z,32.90
2018-06-12T09:19:43.805Z,33.27
2018-06-12T09:22:11.484Z,34.93
2018-06-12T09:24:38.805Z,34.47
2018-06-12T09:27:07.573Z,33.17
2018-06-12T09:29:34.861Z,32.30
2018-06-12T09:32:02.235Z,27.33
2018-06-12T09:34:29.622Z,28.57
2018-06-12T09:36:56.990Z,24.23
2018-06-12T09:39:24.344Z,24.73
2018-06-12T09:41:51.699Z,23.77
2018-06-12T09:44:19.123Z,22.80
2018-06-12T09:46:46.559Z,22.50
2018-06-12T09:49:13.927Z,20.67
2018-06-12T09:51:41.354Z,19.43
2018-06-12T09:54:08.704Z,19.70
2018-06-12T09:56:36.010Z,19.53
2018-06-12T09:59:03.379Z,17.17
2018-06-12T10:01:30.710Z,19.70
2018-06-12T10:03:58.068Z,17.83
2018-06-12T10:06:26.293Z,16.03
2018-06-12T10:08:53.664Z,17.00
2018-06-12T10:11:21.043Z,14.97
2018-06-12T10:13:48.411Z,15.60
2018-06-12T10:16:15.781Z,14.57
2018-06-12T10:18:43.176Z,13.50
2018-06-12T10:21:10.774Z,13.33
2018-06-12T10:23:38.168Z,15.37
2018-06-12T10:26:05.538Z,15.60
2018-06-12T10:28:32.883Z,13.57
2018-06-12T10:31:00.259Z,13.50
2018-06-12T10:33:27.892Z,14.50
2018-06-12T10:35:55.288Z,16.20
2018-06-12T10:38:22.732Z,16.03
2018-06-12T10:40:50.098Z,19.03
2018-06-12T10:43:17.497Z,15.03
2018-06-12T10:45:44.904Z,18.67
2018-06-12T10:48:12.221Z,19.70
2018-06-12T10:50:39.612Z,19.10
2018-06-12T10:53:06.959Z,20.50
2018-06-12T10:55:34.458Z,20.70
2018-06-12T10:58:02.009Z,20.93
2018-06-12T11:00:29.436Z,20.20
2018-06-12T11:02:56.759Z,18.20
2018-06-12T11:05:24.156Z,18.53
2018-06-12T11:07:51.520Z,18.60
2018-06-12T11:10:18.875Z,16.77
2018-06-12T11:12:46.313Z,15.77
2018-06-12T11:15:13.739Z,14.27
2018-06-12T11:17:41.174Z,17.57
2018-06-12T11:20:08.625Z,16.57
2018-06-12T11:22:36.022Z,15.53
2018-06-12T11:25:03.603Z,14.37
2018-06-12T11:27:31.002Z,14.40
2018-06-12T11:29:58.419Z,13.93
2018-06-12T11:32:25.811Z,14.40
2018-06-12T11:34:53.213Z,11.50
2018-06-12T11:37:20.564Z,12.37
2018-06-12T11:39:47.932Z,13.27
2018-06-12T11:42:15.245Z,12.53
2018-06-12T11:44:42.574Z,13.93
2018-06-12T11:47:09.900Z,15.50
2018-06-12T11:49:37.256Z,14.13
2018-06-12T11:52:05.334Z,11.17
2018-06-12T11:54:32.743Z,12.37
2018-06-12T11:57:00.134Z,11.07
2018-06-12T11:59:27.469Z,11.93
2018-06-12T12:01:54.984Z,10.30
2018-06-12T12:04:23.271Z,10.73
2018-06-12T12:06:50.617Z,10.77
2018-06-12T12:09:18.027Z,9.80
2018-06-12T12:11:46.090Z,9.83
2018-06-12T12:14:13.443Z,9.20
2018-06-12T12:16:40.930Z,8.97
2018-06-12T12:25:13.575Z,8.43
2018-06-12T12:27:45.200Z,8.70
2018-06-12T12:30:13.308Z,7.43
2018-06-12T12:32:41.023Z,8.43
2018-06-12T12:35:08.567Z,8.10
2018-06-12T12:37:45.390Z,6.97
2018-06-12T12:40:12.745Z,7.60
2018-06-12T12:42:41.171Z,6.83
2018-06-12T12:45:08.740Z,7.30
2018-06-12T12:47:36.185Z,7.70
2018-06-12T12:50:07.776Z,7.00
2018-06-12T12:52:35.262Z,6.50
2018-06-12T12:55:02.636Z,8.37
2018-06-12T12:57:30.017Z,8.10
2018-06-12T12:59:57.411Z,7.43
2018-06-12T13:02:24.727Z,7.90
2018-06-12T13:04:52.097Z,6.60
2018-06-12T13:07:19.558Z,7.70
2018-06-12T13:09:46.875Z,7.77
2018-06-12T13:12:14.274Z,8.00
2018-06-12T13:14:41.649Z,6.40
2018-06-12T13:17:10.452Z,5.50
2018-06-12T13:19:37.920Z,6.10
2018-06-12T13:22:05.266Z,7.73
2018-06-12T13:24:32.732Z,8.43
2018-06-12T13:27:00.055Z,7.20
2018-06-12T13:29:27.431Z,7.70
2018-06-12T13:31:55.085Z,6.80
2018-06-12T13:34:22.433Z,8.03
2018-06-12T13:36:49.738Z,8.30
2018-06-12T13:39:17.105Z,8.50
2018-06-12T13:41:44.401Z,7.77
2018-06-12T13:44:11.750Z,7.43
2018-06-12T13:46:39.169Z,8.07
2018-06-12T13:49:06.514Z,7.23
2018-06-12T13:51:33.905Z,7.07
2018-06-12T13:54:01.248Z,7.50
2018-06-12T13:56:28.605Z,9.00
2018-06-12T13:58:55.924Z,9.30
2018-06-12T14:01:23.378Z,8.73
2018-06-12T14:03:50.723Z,9.10
2018-06-12T14:06:18.960Z,10.63
2018-06-12T14:08:46.369Z,9.83
2018-06-12T14:11:14.708Z,11.37
2018-06-12T14:13:42.097Z,11.27
2018-06-12T14:16:09.475Z,12.30
2018-06-12T14:18:36.882Z,13.23
2018-06-12T14:21:04.271Z,13.57
2018-06-12T14:23:31.617Z,14.03
2018-06-12T14:25:59.043Z,14.80
2018-06-12T14:28:26.471Z,15.33
2018-06-12T14:30:53.828Z,15.93
2018-06-12T14:33:21.201Z,15.20
2018-06-12T14:35:48.657Z,16.17
2018-06-12T14:38:16.037Z,18.83
2018-06-12T14:40:43.467Z,23.93
2018-06-12T14:43:10.928Z,25.70
2018-06-12T14:45:38.352Z,25.37
2018-06-12T14:48:05.844Z,25.13
2018-06-12T14:50:33.231Z,26.07
2018-06-12T14:53:00.594Z,25.40
2018-06-12T14:55:29.272Z,24.33
2018-06-12T14:57:57.085Z,24.07
2018-06-12T15:00:24.504Z,23.57
2018-06-12T15:02:51.843Z,23.73
2018-06-12T15:05:19.316Z,24.03
2018-06-12T15:07:46.588Z,24.20
2018-06-12T15:10:14.191Z,22.27
2018-06-12T15:12:41.578Z,21.97
2018-06-12T15:15:09.395Z,19.00
2018-06-12T15:17:36.729Z,19.33
2018-06-12T15:20:04.121Z,18.80
2018-06-12T15:22:31.518Z,18.73
2018-06-12T15:24:58.912Z,21.43
2018-06-12T15:27:27.479Z,19.83
2018-06-12T15:29:54.893Z,19.83
2018-06-12T15:32:22.431Z,19.97
2018-06-12T15:34:49.908Z,21.57
2018-06-12T15:37:17.437Z,21.13
2018-06-12T15:39:45.553Z,22.10
2018-06-12T15:42:13.842Z,22.57
2018-06-12T15:44:41.494Z,21.07
2018-06-12T15:47:09.112Z,20.70
2018-06-12T15:49:36.725Z,20.00
2018-06-12T15:52:08.379Z,19.47
2018-06-12T15:54:36.463Z,20.13
2018-06-12T15:57:04.225Z,20.37
2018-06-12T15:59:31.921Z,20.30
2018-06-12T16:01:59.687Z,19.70
2018-06-12T16:04:27.397Z,20.50
2018-06-12T16:06:54.741Z,20.83
2018-06-12T16:09:22.089Z,19.40
2018-06-12T16:11:49.427Z,20.73
2018-06-12T16:14:18.316Z,20.70
2018-06-12T16:16:49.516Z,21.87
2018-06-12T16:19:16.968Z,20.63
2018-06-12T16:21:44.777Z,20.00
2018-06-12T16:24:12.280Z,23.60
2018-06-12T16:26:39.720Z,22.00
2018-06-12T16:29:07.120Z,22.57
2018-06-12T16:31:35.149Z,22.57
2018-06-12T16:34:03.169Z,23.80
2018-06-12T16:36:30.618Z,21.80
2018-06-12T16:39:00.067Z,24.07
2018-06-12T16:41:29.816Z,20.50
2018-06-12T16:43:58.429Z,25.20
2018-06-12T16:46:26.321Z,22.60
2018-06-12T16:48:54.504Z,22.97
2018-06-12T16:51:22.534Z,24.90
2018-06-12T16:53:50.033Z,22.37
2018-06-12T16:56:17.437Z,22.43
2018-06-12T16:58:47.729Z,23.33
2018-06-12T17:01:15.141Z,23.67
2018-06-12T17:03:43.377Z,23.80
2018-06-12T17:06:10.861Z,21.33
2018-06-12T17:08:38.612Z,20.33
2018-06-12T17:11:06.365Z,18.97
2018-06-12T17:13:34.319Z,17.93
2018-06-12T17:16:04.477Z,18.43
2018-06-12T17:18:32.322Z,16.30
2018-06-12T17:21:00.301Z,16.93
2018-06-12T17:23:27.962Z,18.63
2018-06-12T17:25:55.660Z,15.17
2018-06-12T17:28:32.408Z,15.80
2018-06-12T17:31:00.518Z,15.17
2018-06-12T17:33:28.095Z,16.47
2018-06-12T17:35:55.801Z,17.10
2018-06-12T17:38:23.587Z,18.80
2018-06-12T17:43:28.039Z,14.07
2018-06-12T17:45:55.930Z,14.90
2018-06-12T17:48:23.973Z,14.00
2018-06-12T17:50:52.083Z,16.10
2018-06-12T17:53:20.057Z,15.03
2018-06-12T17:55:47.784Z,13.60
2018-06-12T17:58:21.874Z,14.50
2018-06-12T18:00:52.128Z,13.13
2018-06-12T18:03:23.681Z,12.80
2018-06-12T18:05:51.621Z,13.13
2018-06-12T18:08:19.500Z,12.77
2018-06-12T18:10:47.280Z,12.30
2018-06-12T18:13:15.314Z,13.00
2018-06-12T18:15:43.264Z,12.93
2018-06-12T18:18:11.065Z,12.83
2018-06-12T18:20:38.709Z,12.60
2018-06-12T18:23:06.116Z,17.10
2018-06-12T18:25:33.736Z,12.40
2018-06-12T18:28:01.402Z,15.60
2018-06-12T18:30:29.716Z,11.20
2018-06-12T18:32:57.610Z,10.27
2018-06-12T18:35:25.157Z,10.20
2018-06-12T18:37:53.003Z,9.93
2018-06-12T18:40:20.746Z,10.63
2018-06-12T18:42:48.405Z,9.80
2018-06-12T18:45:16.030Z,9.63
2018-06-12T18:47:43.940Z,10.00
2018-06-12T18:50:11.271Z,10.00
2018-06-12T18:52:38.616Z,9.17
2018-06-12T18:55:06.167Z,9.10
2018-06-12T18:57:34.106Z,10.50
2018-06-12T19:00:01.480Z,10.57
2018-06-12T19:02:28.824Z,9.33
2018-06-12T19:04:56.230Z,9.47
2018-06-12T19:07:25.083Z,9.70
2018-06-12T19:09:52.533Z,9.63
2018-06-12T19:12:19.878Z,9.57
2018-06-12T19:14:47.406Z,8.90
2018-06-12T19:17:14.893Z,11.43
2018-06-12T19:19:43.388Z,8.70
2018-06-12T19:22:10.767Z,9.70
2018-06-12T19:24:38.270Z,9.20
2018-06-12T19:27:05.822Z,9.37
2018-06-12T19:29:33.133Z,9.43
2018-06-12T19:32:00.564Z,9.50
2018-06-12T19:34:28.280Z,9.37
2018-06-12T19:36:55.659Z,8.87
2018-06-12T19:39:23.762Z,10.30
2018-06-12T19:41:51.130Z,8.57
2018-06-12T19:44:18.686Z,9.23
2018-06-12T19:46:47.556Z,9.50
2018-06-12T19:49:15.399Z,9.97
2018-06-12T19:51:43.007Z,9.63
2018-06-12T19:54:10.462Z,8.70
2018-06-12T19:56:37.831Z,11.53
2018-06-12T19:59:05.258Z,9.40
2018-06-12T20:01:32.641Z,10.17
2018-06-12T20:04:00.039Z,11.03
2018-06-12T20:06:27.364Z,10.73
2018-06-12T20:08:55.436Z,12.83
2018-06-12T20:11:23.810Z,8.73
2018-06-12T20:13:52.040Z,9.53
2018-06-12T20:16:19.745Z,8.10
2018-06-12T20:18:47.444Z,8.80
2018-06-12T20:21:15.883Z,8.70
2018-06-12T20:23:44.090Z,9.90
2018-06-12T20:26:11.603Z,8.90
2018-06-12T20:28:39.190Z,9.60
2018-06-12T20:31:07.363Z,8.53
2018-06-12T20:33:35.498Z,8.50
2018-06-12T20:36:03.217Z,11.93
2018-06-12T20:38:31.122Z,8.67
2018-06-12T20:40:59.112Z,8.53
2018-06-12T20:43:27.857Z,8.87
2018-06-12T20:45:55.740Z,8.17
2018-06-12T20:48:23.823Z,8.47
2018-06-12T20:50:51.546Z,8.57
2018-06-12T20:53:19.148Z,8.57
2018-06-12T20:55:46.728Z,10.37
2018-06-12T20:58:14.114Z,7.23
2018-06-12T21:00:41.806Z,7.57
2018-06-12T21:03:09.214Z,7.80
2018-06-12T21:05:37.172Z,8.33
2018-06-12T21:08:05.021Z,8.57
2018-06-12T21:10:32.642Z,7.90
2018-06-12T21:13:00.220Z,8.43
2018-06-12T21:15:27.637Z,7.67
2018-06-12T21:17:55.157Z,8.27
2018-06-12T21:20:22.628Z,8.47
2018-06-12T21:22:50.756Z,7.13
2018-06-12T21:25:18.305Z,8.20
2018-06-12T21:27:45.731Z,7.60
2018-06-12T21:30:13.200Z,8.17
2018-06-12T21:32:40.585Z,8.27
2018-06-12T21:35:08.019Z,7.10
2018-06-12T21:37:35.441Z,6.57
2018-06-12T21:40:02.900Z,7.63
2018-06-12T21:42:30.322Z,7.37
2018-06-12T21:44:57.828Z,8.10
2018-06-12T21:47:25.193Z,6.70
2018-06-12T21:49:52.649Z,8.10
2018-06-12T21:52:20.006Z,6.47
2018-06-12T21:54:47.463Z,8.37
2018-06-12T21:57:14.907Z,7.50
2018-06-12T21:59:42.427Z,7.27
2018-06-12T22:02:09.805Z,7.90
2018-06-12T22:04:37.161Z,11.20
2018-06-12T22:07:04.563Z,7.37
2018-06-12T22:09:32.123Z,7.40
2018-06-12T22:11:59.519Z,7.53
2018-06-12T22:14:29.117Z,7.43
2018-06-12T22:16:56.943Z,8.50
2018-06-12T22:19:24.463Z,9.03
2018-06-12T22:21:51.861Z,8.13
2018-06-12T22:24:19.325Z,8.10
2018-06-12T22:26:46.753Z,9.40
2018-06-12T22:29:14.131Z,9.10
2018-06-12T22:31:41.543Z,9.23
2018-06-12T22:34:09.023Z,11.60
2018-06-12T22:36:36.398Z,11.00
2018-06-12T22:39:05.672Z,9.00
2018-06-12T22:41:33.388Z,9.57
2018-06-12T22:44:00.895Z,9.33
2018-06-12T22:46:28.385Z,10.50
2018-06-12T22:48:55.843Z,9.57
2018-06-12T22:51:23.404Z,8.53
2018-06-12T22:53:50.833Z,9.93
2018-06-12T22:56:18.279Z,9.63
2018-06-12T22:58:45.726Z,10.07
2018-06-12T23:01:13.180Z,11.23
2018-06-12T23:03:40.609Z,9.70
2018-06-12T23:06:08.061Z,9.07
2018-06-12T23:08:35.590Z,9.97
2018-06-12T23:11:03.064Z,8.40
2018-06-12T23:13:30.457Z,8.53
2018-06-12T23:15:57.966Z,9.53
2018-06-12T23:18:25.376Z,8.77
2018-06-12T23:21:14.045Z,8.50
2018-06-12T23:23:41.614Z,8.63
2018-06-12T23:26:09.212Z,9.37
2018-06-12T23:28:36.680Z,8.83
2018-06-12T23:31:04.238Z,9.03
2018-06-12T23:33:31.804Z,8.27
2018-06-12T23:35:59.270Z,11.33
2018-06-12T23:38:26.702Z,8.90
2018-06-12T23:40:54.118Z,8.33
2018-06-12T23:43:22.267Z,9.40
2018-06-12T23:45:49.706Z,9.20
2018-06-12T23:48:17.226Z,7.57
2018-06-12T23:50:44.751Z,8.40
2018-06-12T23:53:12.267Z,10.97
2018-06-12T23:55:39.757Z,8.87
2018-06-12T23:58:07.620Z,7.57
